DLH5EW EDDF-EDDH
Flight info
| Callsign | DLH5EW |
|---|---|
| Flight time | 0h 49m |
| Altitude | 35000 |
| Route | MARUN3W/25C MARUN Y150 TOLGI DCT SAS/N0441F340 P605 NOLGO NOLGO3P |
| Aircraft | A20N/M-SDE2E3FGHIRWXY/LB1 |
Departure
| Time | 2026-05-04 14:07 |
|---|---|
| Airport | Frankfurt Main Airport (EDDF) |
Arrival
| Time | 2026-05-04 14:57 |
|---|---|
| Airport | Hamburg Helmut Schmidt Airport (EDDH) |
| Time | Latitude | Longitude | Altitude | Speed | Heading |
|---|---|---|---|---|---|
| 2026-05-04 13:27 | 50.04583 | 8.56612 | 355 ft | 0 kts | 114° |
| 2026-05-04 13:51 | 50.04586 | 8.56603 | 354 ft | 1 kts | 114° |
| 2026-05-04 13:51 | 50.04592 | 8.56580 | 353 ft | 3 kts | 114° |
| 2026-05-04 13:51 | 50.04601 | 8.56549 | 356 ft | 3 kts | 114° |
| 2026-05-04 13:52 | 50.04624 | 8.56510 | 350 ft | 3 kts | 159° |
| 2026-05-04 13:52 | 50.04643 | 8.56504 | 353 ft | 1 kts | 188° |
| 2026-05-04 13:52 | 50.04662 | 8.56514 | 350 ft | 0 kts | 209° |
| 2026-05-04 13:56 | 50.04661 | 8.56513 | 349 ft | 0 kts | 209° |
| 2026-05-04 13:56 | 50.04542 | 8.56412 | 349 ft | 17 kts | 228° |
| 2026-05-04 13:57 | 50.04474 | 8.56236 | 353 ft | 21 kts | 245° |
| 2026-05-04 13:57 | 50.04436 | 8.56063 | 354 ft | 8 kts | 244° |
| 2026-05-04 13:58 | 50.04180 | 8.56264 | 352 ft | 18 kts | 134° |
| 2026-05-04 13:58 | 50.04219 | 8.56669 | 353 ft | 24 kts | 69° |
| 2026-05-04 13:58 | 50.04282 | 8.56926 | 345 ft | 27 kts | 69° |
| 2026-05-04 13:59 | 50.04344 | 8.57189 | 348 ft | 22 kts | 69° |
| 2026-05-04 13:59 | 50.04386 | 8.57363 | 352 ft | 4 kts | 70° |
| 2026-05-04 13:59 | 50.04449 | 8.57632 | 349 ft | 21 kts | 70° |
| 2026-05-04 14:00 | 50.04488 | 8.57797 | 347 ft | 9 kts | 71° |
| 2026-05-04 14:00 | 50.04513 | 8.57899 | 348 ft | 0 kts | 66° |
| 2026-05-04 14:04 | 50.04529 | 8.57963 | 354 ft | 15 kts | 70° |
| 2026-05-04 14:04 | 50.04584 | 8.58196 | 351 ft | 29 kts | 70° |
| 2026-05-04 14:05 | 50.04651 | 8.58474 | 349 ft | 13 kts | 80° |
| 2026-05-04 14:05 | 50.04616 | 8.58577 | 347 ft | 7 kts | 147° |
| 2026-05-04 14:05 | 50.04602 | 8.58586 | 346 ft | 3 kts | 161° |
| 2026-05-04 14:06 | 50.04529 | 8.58625 | 352 ft | 13 kts | 160° |
| 2026-05-04 14:06 | 50.04482 | 8.58593 | 350 ft | 5 kts | 259° |
| 2026-05-04 14:06 | 50.04476 | 8.58544 | 345 ft | 0 kts | 246° |
| 2026-05-04 14:07 | 50.04458 | 8.58478 | 351 ft | 35 kts | 249° |
| 2026-05-04 14:07 | 50.04255 | 8.57620 | 348 ft | 128 kts | 249° |
| 2026-05-04 14:07 | 50.03875 | 8.56024 | 624 ft | 171 kts | 249° |
| 2026-05-04 14:07 | 50.03460 | 8.54321 | 1694 ft | 166 kts | 250° |
| 2026-05-04 14:08 | 50.03058 | 8.52633 | 2725 ft | 172 kts | 250° |
| 2026-05-04 14:08 | 50.02624 | 8.50821 | 3416 ft | 190 kts | 246° |
| 2026-05-04 14:08 | 50.01799 | 8.49102 | 4083 ft | 207 kts | 220° |
| 2026-05-04 14:08 | 50.00513 | 8.48066 | 4899 ft | 211 kts | 195° |
| 2026-05-04 14:09 | 49.97557 | 8.47421 | 6456 ft | 218 kts | 188° |
| 2026-05-04 14:09 | 49.96006 | 8.47058 | 6879 ft | 236 kts | 193° |
| 2026-05-04 14:10 | 49.92439 | 8.45305 | 7178 ft | 300 kts | 208° |
| 2026-05-04 14:10 | 49.90796 | 8.43250 | 7334 ft | 307 kts | 231° |
| 2026-05-04 14:10 | 49.89869 | 8.40443 | 7472 ft | 283 kts | 256° |
| 2026-05-04 14:10 | 49.89844 | 8.37552 | 7611 ft | 258 kts | 284° |
| 2026-05-04 14:11 | 49.90674 | 8.35151 | 7763 ft | 258 kts | 313° |
| 2026-05-04 14:11 | 49.93985 | 8.33123 | 8085 ft | 279 kts | 352° |
| 2026-05-04 14:11 | 49.95916 | 8.32670 | 8235 ft | 281 kts | 349° |
| 2026-05-04 14:12 | 49.97818 | 8.31953 | 8384 ft | 282 kts | 343° |
| 2026-05-04 14:12 | 49.99677 | 8.30992 | 8533 ft | 282 kts | 339° |
| 2026-05-04 14:12 | 50.03382 | 8.28783 | 8836 ft | 303 kts | 345° |
| 2026-05-04 14:13 | 50.05547 | 8.28454 | 9000 ft | 318 kts | 4° |
| 2026-05-04 14:13 | 50.07677 | 8.29256 | 9146 ft | 321 kts | 23° |
| 2026-05-04 14:13 | 50.09639 | 8.30943 | 9303 ft | 323 kts | 30° |
| 2026-05-04 14:13 | 50.11616 | 8.32755 | 9464 ft | 347 kts | 30° |
| 2026-05-04 14:14 | 50.13796 | 8.34777 | 9614 ft | 375 kts | 31° |
| 2026-05-04 14:14 | 50.18387 | 8.39075 | 9921 ft | 397 kts | 31° |
| 2026-05-04 14:14 | 50.20739 | 8.41283 | 10073 ft | 385 kts | 31° |
| 2026-05-04 14:15 | 50.25094 | 8.45377 | 10373 ft | 377 kts | 31° |
| 2026-05-04 14:15 | 50.29869 | 8.49874 | 11444 ft | 411 kts | 31° |
| 2026-05-04 14:16 | 50.34829 | 8.54559 | 13237 ft | 421 kts | 31° |
| 2026-05-04 14:16 | 50.37352 | 8.56947 | 14060 ft | 427 kts | 31° |
| 2026-05-04 14:17 | 50.42495 | 8.61822 | 15657 ft | 437 kts | 31° |
| 2026-05-04 14:17 | 50.45077 | 8.64274 | 16427 ft | 441 kts | 31° |
| 2026-05-04 14:17 | 50.50368 | 8.69311 | 18146 ft | 442 kts | 31° |
| 2026-05-04 14:18 | 50.52965 | 8.71788 | 19645 ft | 429 kts | 31° |
| 2026-05-04 14:18 | 50.57926 | 8.76530 | 22677 ft | 413 kts | 31° |
| 2026-05-04 14:19 | 50.62980 | 8.81371 | 23734 ft | 441 kts | 31° |
| 2026-05-04 14:19 | 50.65662 | 8.83946 | 23921 ft | 461 kts | 31° |
| 2026-05-04 14:19 | 50.68459 | 8.86635 | 24000 ft | 481 kts | 31° |
| 2026-05-04 14:19 | 50.71377 | 8.89444 | 24000 ft | 499 kts | 31° |
| 2026-05-04 14:20 | 50.74367 | 8.92328 | 23997 ft | 500 kts | 31° |
| 2026-05-04 14:20 | 50.77235 | 8.95099 | 23999 ft | 468 kts | 31° |
| 2026-05-04 14:20 | 50.79935 | 8.97712 | 23998 ft | 441 kts | 31° |
| 2026-05-04 14:21 | 50.85346 | 9.02955 | 24000 ft | 474 kts | 31° |
| 2026-05-04 14:21 | 50.88185 | 9.05713 | 24000 ft | 481 kts | 31° |
| 2026-05-04 14:21 | 50.91034 | 9.08483 | 24000 ft | 481 kts | 31° |
| 2026-05-04 14:21 | 50.93880 | 9.11255 | 24000 ft | 481 kts | 31° |
| 2026-05-04 14:22 | 50.96711 | 9.14017 | 24210 ft | 486 kts | 31° |
| 2026-05-04 14:22 | 50.99625 | 9.16864 | 24847 ft | 486 kts | 31° |
| 2026-05-04 14:22 | 51.02480 | 9.19658 | 25307 ft | 489 kts | 31° |
| 2026-05-04 14:22 | 51.05375 | 9.22495 | 25650 ft | 492 kts | 31° |
| 2026-05-04 14:23 | 51.11466 | 9.27524 | 26276 ft | 494 kts | 21° |
| 2026-05-04 14:23 | 51.14733 | 9.29262 | 26619 ft | 494 kts | 15° |
| 2026-05-04 14:23 | 51.18082 | 9.30506 | 26966 ft | 493 kts | 12° |
| 2026-05-04 14:24 | 51.21428 | 9.31666 | 27341 ft | 492 kts | 12° |
| 2026-05-04 14:24 | 51.24775 | 9.32844 | 27645 ft | 493 kts | 12° |
| 2026-05-04 14:24 | 51.28126 | 9.34022 | 27946 ft | 492 kts | 12° |
| 2026-05-04 14:25 | 51.34770 | 9.36345 | 28002 ft | 491 kts | 12° |
| 2026-05-04 14:25 | 51.41432 | 9.38668 | 27999 ft | 490 kts | 12° |
| 2026-05-04 14:25 | 51.44762 | 9.39832 | 28002 ft | 489 kts | 12° |
| 2026-05-04 14:26 | 51.51416 | 9.42161 | 27999 ft | 489 kts | 12° |
| 2026-05-04 14:26 | 51.54742 | 9.43328 | 27998 ft | 490 kts | 12° |
| 2026-05-04 14:26 | 51.58072 | 9.44498 | 28002 ft | 489 kts | 12° |
| 2026-05-04 14:27 | 51.61395 | 9.45668 | 27998 ft | 489 kts | 12° |
| 2026-05-04 14:27 | 51.64707 | 9.46836 | 27997 ft | 489 kts | 12° |
| 2026-05-04 14:27 | 51.68034 | 9.48010 | 28000 ft | 490 kts | 12° |
| 2026-05-04 14:27 | 51.71369 | 9.49189 | 27997 ft | 491 kts | 12° |
| 2026-05-04 14:28 | 51.77962 | 9.51526 | 27996 ft | 490 kts | 12° |
| 2026-05-04 14:28 | 51.81272 | 9.52887 | 27998 ft | 491 kts | 17° |
| 2026-05-04 14:28 | 51.84480 | 9.54778 | 28001 ft | 490 kts | 22° |
| 2026-05-04 14:29 | 51.96667 | 9.64668 | 27999 ft | 490 kts | 27° |
| 2026-05-04 14:30 | 51.98675 | 9.66326 | 27997 ft | 490 kts | 27° |
| 2026-05-04 14:30 | 52.02736 | 9.69694 | 28001 ft | 490 kts | 27° |
| 2026-05-04 14:30 | 52.08733 | 9.74693 | 27997 ft | 481 kts | 27° |
| 2026-05-04 14:31 | 52.11672 | 9.77151 | 28000 ft | 481 kts | 27° |
| 2026-05-04 14:31 | 52.17629 | 9.82143 | 27999 ft | 481 kts | 27° |
| 2026-05-04 14:32 | 52.23592 | 9.87079 | 27999 ft | 481 kts | 24° |
| 2026-05-04 14:32 | 52.26704 | 9.89035 | 27997 ft | 481 kts | 18° |
| 2026-05-04 14:32 | 52.29927 | 9.90501 | 28000 ft | 480 kts | 14° |
| 2026-05-04 14:32 | 52.33160 | 9.91916 | 28000 ft | 480 kts | 15° |
| 2026-05-04 14:33 | 52.36390 | 9.93351 | 28001 ft | 480 kts | 15° |
| 2026-05-04 14:33 | 52.39623 | 9.94790 | 27999 ft | 480 kts | 15° |
| 2026-05-04 14:33 | 52.42858 | 9.96225 | 28002 ft | 480 kts | 15° |
| 2026-05-04 14:34 | 52.49276 | 9.99069 | 28002 ft | 480 kts | 15° |
| 2026-05-04 14:34 | 52.52503 | 10.00499 | 28000 ft | 480 kts | 15° |
| 2026-05-04 14:34 | 52.55719 | 10.01927 | 27918 ft | 477 kts | 15° |
| 2026-05-04 14:34 | 52.58914 | 10.03349 | 27355 ft | 473 kts | 15° |
| 2026-05-04 14:35 | 52.62073 | 10.04760 | 26571 ft | 468 kts | 15° |
| 2026-05-04 14:35 | 52.65197 | 10.06158 | 25979 ft | 462 kts | 15° |
| 2026-05-04 14:35 | 52.68301 | 10.07549 | 25667 ft | 463 kts | 15° |
| 2026-05-04 14:35 | 52.71408 | 10.08943 | 25476 ft | 463 kts | 15° |
| 2026-05-04 14:36 | 52.74515 | 10.10338 | 25406 ft | 462 kts | 14° |
| 2026-05-04 14:36 | 52.77659 | 10.11419 | 25374 ft | 462 kts | 8° |
| 2026-05-04 14:36 | 52.80862 | 10.11864 | 25349 ft | 461 kts | 1° |
| 2026-05-04 14:36 | 52.84067 | 10.11944 | 25330 ft | 461 kts | 1° |
| 2026-05-04 14:37 | 52.87284 | 10.12056 | 25306 ft | 461 kts | 1° |
| 2026-05-04 14:37 | 52.90446 | 10.12174 | 25282 ft | 461 kts | 1° |
| 2026-05-04 14:37 | 52.93694 | 10.12291 | 25256 ft | 460 kts | 1° |
| 2026-05-04 14:37 | 52.96890 | 10.12403 | 25231 ft | 460 kts | 1° |
| 2026-05-04 14:38 | 53.00096 | 10.12511 | 25180 ft | 460 kts | 1° |
| 2026-05-04 14:38 | 53.03285 | 10.12617 | 24905 ft | 473 kts | 1° |
| 2026-05-04 14:38 | 53.06640 | 10.12728 | 24481 ft | 479 kts | 1° |
| 2026-05-04 14:38 | 53.09903 | 10.12836 | 24057 ft | 459 kts | 1° |
| 2026-05-04 14:39 | 53.13038 | 10.12941 | 23722 ft | 440 kts | 1° |
| 2026-05-04 14:39 | 53.16061 | 10.13042 | 23042 ft | 430 kts | 1° |
| 2026-05-04 14:39 | 53.19046 | 10.13141 | 22198 ft | 426 kts | 1° |
| 2026-05-04 14:40 | 53.24858 | 10.13335 | 20797 ft | 401 kts | 1° |
| 2026-05-04 14:40 | 53.27532 | 10.13425 | 20527 ft | 376 kts | 1° |
| 2026-05-04 14:40 | 53.30061 | 10.13511 | 20303 ft | 352 kts | 1° |
| 2026-05-04 14:40 | 53.32440 | 10.13591 | 20112 ft | 330 kts | 1° |
| 2026-05-04 14:41 | 53.34661 | 10.13666 | 20033 ft | 308 kts | 1° |
| 2026-05-04 14:41 | 53.36744 | 10.13736 | 19920 ft | 293 kts | 1° |
| 2026-05-04 14:41 | 53.40178 | 10.13791 | 19557 ft | 298 kts | 355° |
| 2026-05-04 14:42 | 53.44237 | 10.13259 | 18646 ft | 291 kts | 355° |
| 2026-05-04 14:42 | 53.46272 | 10.12998 | 17853 ft | 298 kts | 355° |
| 2026-05-04 14:42 | 53.48387 | 10.12730 | 16733 ft | 313 kts | 355° |
| 2026-05-04 14:43 | 53.50623 | 10.12446 | 15457 ft | 328 kts | 355° |
| 2026-05-04 14:43 | 53.52914 | 10.12154 | 14220 ft | 340 kts | 355° |
| 2026-05-04 14:43 | 53.55296 | 10.11858 | 12965 ft | 347 kts | 357° |
| 2026-05-04 14:43 | 53.57700 | 10.12341 | 11706 ft | 351 kts | 17° |
| 2026-05-04 14:44 | 53.59863 | 10.14245 | 10461 ft | 354 kts | 38° |
| 2026-05-04 14:44 | 53.61588 | 10.17206 | 9212 ft | 355 kts | 50° |
| 2026-05-04 14:44 | 53.63142 | 10.20500 | 7945 ft | 354 kts | 52° |
| 2026-05-04 14:44 | 53.64624 | 10.23738 | 6713 ft | 353 kts | 52° |
| 2026-05-04 14:45 | 53.66143 | 10.26989 | 5459 ft | 351 kts | 51° |
| 2026-05-04 14:45 | 53.67674 | 10.30179 | 4243 ft | 349 kts | 50° |
| 2026-05-04 14:45 | 53.69160 | 10.33218 | 3984 ft | 318 kts | 50° |
| 2026-05-04 14:45 | 53.70498 | 10.35933 | 3996 ft | 284 kts | 50° |
| 2026-05-04 14:46 | 53.71864 | 10.38062 | 3992 ft | 255 kts | 28° |
| 2026-05-04 14:46 | 53.75540 | 10.38224 | 3997 ft | 234 kts | 353° |
| 2026-05-04 14:46 | 53.76608 | 10.38039 | 4005 ft | 233 kts | 354° |
| 2026-05-04 14:47 | 53.78775 | 10.37699 | 4008 ft | 235 kts | 354° |
| 2026-05-04 14:47 | 53.80392 | 10.37860 | 4003 ft | 234 kts | 12° |
| 2026-05-04 14:47 | 53.81936 | 10.38670 | 3996 ft | 233 kts | 8° |
| 2026-05-04 14:47 | 53.83470 | 10.38419 | 4001 ft | 219 kts | 337° |
| 2026-05-04 14:48 | 53.84793 | 10.37298 | 4001 ft | 211 kts | 322° |
| 2026-05-04 14:48 | 53.85740 | 10.35412 | 4027 ft | 210 kts | 302° |
| 2026-05-04 14:48 | 53.86437 | 10.33278 | 3996 ft | 209 kts | 286° |
| 2026-05-04 14:48 | 53.86410 | 10.30844 | 3998 ft | 210 kts | 251° |
| 2026-05-04 14:49 | 53.85594 | 10.28803 | 3898 ft | 210 kts | 221° |
| 2026-05-04 14:49 | 53.84756 | 10.28041 | 3688 ft | 205 kts | 195° |
| 2026-05-04 14:49 | 53.83413 | 10.27906 | 3639 ft | 178 kts | 180° |
| 2026-05-04 14:49 | 53.82287 | 10.27674 | 3696 ft | 151 kts | 192° |
| 2026-05-04 14:50 | 53.81307 | 10.27303 | 3685 ft | 140 kts | 198° |
| 2026-05-04 14:50 | 53.80420 | 10.26633 | 3714 ft | 141 kts | 210° |
| 2026-05-04 14:50 | 53.79527 | 10.25992 | 3537 ft | 135 kts | 197° |
| 2026-05-04 14:50 | 53.78631 | 10.25661 | 3310 ft | 132 kts | 195° |
| 2026-05-04 14:51 | 53.77799 | 10.25057 | 3112 ft | 127 kts | 208° |
| 2026-05-04 14:51 | 53.77036 | 10.24363 | 2971 ft | 125 kts | 210° |
| 2026-05-04 14:51 | 53.76290 | 10.23572 | 2816 ft | 132 kts | 217° |
| 2026-05-04 14:51 | 53.75553 | 10.22561 | 2685 ft | 142 kts | 221° |
| 2026-05-04 14:52 | 53.74813 | 10.21451 | 2676 ft | 145 kts | 224° |
| 2026-05-04 14:52 | 53.74084 | 10.20278 | 2640 ft | 140 kts | 225° |
| 2026-05-04 14:52 | 53.73434 | 10.19196 | 2464 ft | 126 kts | 225° |
| 2026-05-04 14:52 | 53.72847 | 10.18135 | 2276 ft | 124 kts | 228° |
| 2026-05-04 14:53 | 53.72266 | 10.17050 | 2096 ft | 125 kts | 228° |
| 2026-05-04 14:53 | 53.71689 | 10.15956 | 1949 ft | 124 kts | 230° |
| 2026-05-04 14:53 | 53.71137 | 10.14858 | 1803 ft | 122 kts | 230° |
| 2026-05-04 14:53 | 53.70586 | 10.13783 | 1637 ft | 121 kts | 229° |
| 2026-05-04 14:54 | 53.70011 | 10.12685 | 1530 ft | 121 kts | 229° |
| 2026-05-04 14:54 | 53.69478 | 10.11654 | 1349 ft | 114 kts | 228° |
| 2026-05-04 14:54 | 53.68956 | 10.10685 | 1164 ft | 109 kts | 228° |
| 2026-05-04 14:54 | 53.68352 | 10.09511 | 1084 ft | 151 kts | 230° |
| 2026-05-04 14:55 | 53.67737 | 10.08285 | 965 ft | 128 kts | 230° |
| 2026-05-04 14:55 | 53.67190 | 10.07184 | 796 ft | 118 kts | 230° |
| 2026-05-04 14:55 | 53.66578 | 10.05932 | 687 ft | 144 kts | 230° |
| 2026-05-04 14:55 | 53.65932 | 10.04655 | 534 ft | 143 kts | 230° |
| 2026-05-04 14:56 | 53.65310 | 10.03399 | 373 ft | 136 kts | 231° |
| 2026-05-04 14:56 | 53.64707 | 10.02189 | 292 ft | 133 kts | 230° |
| 2026-05-04 14:56 | 53.64157 | 10.01050 | 197 ft | 116 kts | 231° |
| 2026-05-04 14:56 | 53.63662 | 10.00070 | 83 ft | 105 kts | 230° |
| 2026-05-04 14:57 | 53.63327 | 9.99416 | 51 ft | 16 kts | 214° |
| 2026-05-04 14:57 | 53.63254 | 9.99257 | 52 ft | 19 kts | 233° |
| 2026-05-04 14:57 | 53.63158 | 9.99052 | 49 ft | 24 kts | 231° |
| 2026-05-04 14:57 | 53.63103 | 9.98954 | 51 ft | 13 kts | 226° |
| 2026-05-04 14:58 | 53.62991 | 9.98728 | 49 ft | 31 kts | 231° |
| 2026-05-04 14:58 | 53.62817 | 9.98496 | 50 ft | 33 kts | 198° |
| 2026-05-04 14:58 | 53.62701 | 9.98500 | 50 ft | 1 kts | 132° |
| 2026-05-04 14:58 | 53.62696 | 9.98539 | 50 ft | 9 kts | 70° |
| 2026-05-04 14:59 | 53.62832 | 9.98838 | 50 ft | 39 kts | 48° |
| 2026-05-04 14:59 | 53.62965 | 9.99104 | 50 ft | 15 kts | 50° |
| 2026-05-04 14:59 | 53.63077 | 9.99345 | 50 ft | 4 kts | 53° |